Time;durP1;ratioP1;P1;durP2;ratioP2;P2;SDS_P1;SDS_P2;PMS_P1;PMS_P2;Temp;Humidity;BMP_temperature;BMP_pressure;BME280_temperature;BME280_humidity;BME280_pressure;Samples;Min_cycle;Max_cycle;Signal;HPM_P1;HPM_P2
2021/04/19 00:01:53;;;;;;;19.80;18.00;;;9.00;26.60;;;;;;5005516;28;20461;-43
2021/04/19 00:04:21;;;;;;;20.93;18.57;;;8.90;56.40;;;;;;4992065;28;20469;-50
2021/04/19 00:06:48;;;;;;;19.63;17.63;;;8.90;99.20;;;;;;5006248;28;20463;-46
2021/04/19 00:09:14;;;;;;;21.07;18.97;;;8.80;99.50;;;;;;5003647;28;20579;-43
2021/04/19 00:11:41;;;;;;;20.97;18.87;;;8.80;99.90;;;;;;5006523;28;20456;-43
2021/04/19 00:14:07;;;;;;;21.00;19.13;;;8.70;99.90;;;;;;5004529;28;20461;-46
2021/04/19 00:16:35;;;;;;;21.50;19.30;;;8.60;99.90;;;;;;5012594;28;20533;-45
2021/04/19 00:19:01;;;;;;;22.57;20.27;;;8.60;99.90;;;;;;5012272;28;20468;-49
2021/04/19 00:21:30;;;;;;;20.53;18.43;;;8.60;99.90;;;;;;5007744;28;20460;-43
2021/04/19 00:23:56;;;;;;;19.90;17.90;;;8.60;99.90;;;;;;5006324;28;20904;-44
2021/04/19 00:26:26;;;;;;;20.00;17.90;;;8.60;99.90;;;;;;5003975;28;20469;-43
2021/04/19 00:28:55;;;;;;;20.67;18.70;;;8.50;99.90;;;;;;5001058;28;20827;-43
2021/04/19 00:31:21;;;;;;;20.80;18.80;;;8.50;99.90;;;;;;4996462;28;20488;-43
2021/04/19 00:33:48;;;;;;;20.80;18.80;;;8.50;99.90;;;;;;4997353;28;20473;-44
2021/04/19 00:36:14;;;;;;;20.33;18.30;;;8.40;99.90;;;;;;4997471;28;20473;-45
2021/04/19 00:38:42;;;;;;;19.93;17.93;;;8.30;99.90;;;;;;5007301;28;20464;-50
2021/04/19 00:41:14;;;;;;;20.57;18.37;;;8.20;99.90;;;;;;5006189;28;20499;-46
2021/04/19 00:43:41;;;;;;;21.33;19.20;;;8.20;99.90;;;;;;5012852;28;20882;-47
2021/04/19 00:46:08;;;;;;;20.97;18.87;;;8.10;99.90;;;;;;5000042;28;20519;-49
2021/04/19 00:48:36;;;;;;;22.17;19.93;;;8.10;99.90;;;;;;4997074;28;20512;-46
2021/04/19 00:51:03;;;;;;;20.93;18.80;;;8.00;99.90;;;;;;4992198;28;20523;-47
2021/04/19 00:53:30;;;;;;;22.63;20.23;;;8.10;99.90;;;;;;4996612;28;20471;-45
2021/04/19 00:56:00;;;;;;;21.07;18.87;;;8.00;99.90;;;;;;4996659;28;20464;-46
2021/04/19 00:58:29;;;;;;;21.43;19.43;;;8.00;99.90;;;;;;4996741;28;20465;-45
2021/04/19 01:00:56;;;;;;;20.43;18.40;;;8.00;1.00;;;;;;4993683;28;20495;-47
2021/04/19 01:03:24;;;;;;;25.47;20.60;;;8.00;1.00;;;;;;4996777;28;20468;-46
2021/04/19 01:05:51;;;;;;;22.33;20.23;;;8.10;1.00;;;;;;4989145;28;20536;-43
2021/04/19 01:08:18;;;;;;;22.87;20.63;;;8.10;1.00;;;;;;5005763;28;20569;-44
2021/04/19 01:10:45;;;;;;;23.90;21.60;;;8.10;1.00;;;;;;4996898;28;20464;-43
2021/04/19 01:13:12;;;;;;;22.80;20.33;;;8.10;1.00;;;;;;4996604;28;20468;-43
2021/04/19 01:15:39;;;;;;;23.03;20.80;;;8.10;48.60;;;;;;4996434;28;20468;-43
2021/04/19 01:18:06;;;;;;;22.20;20.07;;;8.10;92.50;;;;;;4996794;28;20763;-44
2021/04/19 01:20:37;;;;;;;23.00;20.60;;;8.10;93.80;;;;;;4999143;28;20499;-48
2021/04/19 01:23:03;;;;;;;22.67;20.47;;;8.10;99.90;;;;;;5000091;28;20473;-46
2021/04/19 01:25:31;;;;;;;22.57;19.90;;;8.10;99.90;;;;;;5000101;28;20468;-45
2021/04/19 01:27:58;;;;;;;21.67;19.47;;;8.10;99.90;;;;;;5009642;28;20448;-44
2021/04/19 01:30:30;;;;;;;22.40;19.90;;;8.10;99.90;;;;;;5011322;28;20946;-45
2021/04/19 01:32:57;;;;;;;24.73;22.43;;;8.10;99.90;;;;;;5004884;28;20898;-44
2021/04/19 01:35:24;;;;;;;22.90;20.50;;;8.10;99.90;;;;;;5000359;28;20469;-43
2021/04/19 01:37:51;;;;;;;23.10;19.97;;;8.10;99.90;;;;;;4999212;28;20461;-45
2021/04/19 01:40:18;;;;;;;22.90;20.50;;;8.10;99.90;;;;;;5000323;28;20637;-44
2021/04/19 01:42:45;;;;;;;23.97;21.47;;;8.10;99.90;;;;;;4999530;28;20500;-45
2021/04/19 01:45:14;;;;;;;20.83;18.93;;;8.10;99.90;;;;;;5000153;28;20464;-45
2021/04/19 01:47:41;;;;;;;22.67;20.40;;;8.10;99.90;;;;;;4999571;28;20553;-43
2021/04/19 01:50:12;;;;;;;20.90;18.90;;;8.10;99.90;;;;;;5000439;28;20440;-47
2021/04/19 01:52:39;;;;;;;20.57;18.67;;;8.10;99.90;;;;;;5005897;28;20464;-43
2021/04/19 01:55:13;;;;;;;22.60;20.30;;;8.10;99.90;;;;;;5011943;28;20460;-43
2021/04/19 01:57:44;;;;;;;24.60;22.20;;;8.10;46.40;;;;;;4999800;28;20468;-43
2021/04/19 02:00:13;;;;;;;26.70;23.97;;;8.10;55.80;;;;;;4999693;28;20481;-45
2021/04/19 02:02:49;;;;;;;24.67;22.37;;;8.10;81.90;;;;;;4997390;28;20486;-47
2021/04/19 02:05:24;;;;;;;23.67;21.17;;;8.20;49.90;;;;;;4998806;28;20471;-42
2021/04/19 02:07:58;;;;;;;23.80;21.47;;;8.20;1.00;;;;;;5016731;28;20517;-43
2021/04/19 02:10:35;;;;;;;24.00;20.57;;;8.20;1.00;;;;;;4999129;28;20457;-47
2021/04/19 02:13:11;;;;;;;20.67;18.60;;;8.20;1.00;;;;;;4999663;28;20928;-44
2021/04/19 02:15:47;;;;;;;20.53;18.40;;;8.30;1.00;;;;;;4999796;28;20464;-46
2021/04/19 02:18:22;;;;;;;19.80;18.00;;;8.30;1.00;;;;;;4999959;28;20460;-43
2021/04/19 02:20:52;;;;;;;21.57;19.27;;;8.30;1.00;;;;;;4999551;28;20582;-44
2021/04/19 02:23:25;;;;;;;20.10;18.10;;;8.40;1.00;;;;;;4999253;28;20500;-43
2021/04/19 02:25:57;;;;;;;20.27;18.27;;;8.40;1.00;;;;;;4999205;28;20476;-47
2021/04/19 02:28:28;;;;;;;20.17;18.20;;;8.30;1.00;;;;;;4999256;28;20523;-46
2021/04/19 02:31:00;;;;;;;21.80;19.50;;;8.30;1.00;;;;;;5013106;28;20494;-45
2021/04/19 02:33:32;;;;;;;20.13;18.23;;;8.30;26.30;;;;;;5018869;28;20845;-45
2021/04/19 02:35:59;;;;;;;21.50;19.40;;;8.30;74.80;;;;;;5018902;28;20435;-46
2021/04/19 02:38:30;;;;;;;21.27;19.27;;;8.30;99.90;;;;;;5014250;28;20457;-47
2021/04/19 02:41:01;;;;;;;21.73;19.73;;;8.30;99.90;;;;;;5008362;28;20810;-48
2021/04/19 02:43:30;;;;;;;21.83;19.60;;;8.20;1.00;;;;;;5018407;28;20468;-47
2021/04/19 02:45:58;;;;;;;20.90;18.80;;;8.20;1.00;;;;;;5018540;28;20468;-45
2021/04/19 02:48:25;;;;;;;22.20;19.93;;;8.10;99.90;;;;;;5019180;28;20449;-46
2021/04/19 02:50:52;;;;;;;22.93;20.53;;;8.20;65.40;;;;;;5018716;28;20460;-51
2021/04/19 02:53:21;;;;;;;24.37;20.80;;;8.40;99.90;;;;;;5018783;28;20468;-49
2021/04/19 02:55:51;;;;;;;22.53;20.53;;;8.30;99.90;;;;;;5018202;28;20459;-49
2021/04/19 02:58:25;;;;;;;22.70;20.40;;;8.30;99.90;;;;;;5018923;28;20919;-50
2021/04/19 03:00:52;;;;;;;24.10;21.70;;;8.30;99.90;;;;;;5017907;28;20530;-49
2021/04/19 03:03:23;;;;;;;24.23;21.73;;;8.30;99.90;;;;;;5006641;28;20450;-54
2021/04/19 03:05:52;;;;;;;23.93;21.60;;;8.30;99.90;;;;;;5002424;28;20567;-49
2021/04/19 03:08:20;;;;;;;25.77;23.23;;;8.30;99.90;;;;;;5004689;28;20465;-56
2021/04/19 03:10:55;;;;;;;23.43;21.03;;;8.40;99.90;;;;;;5008228;28;20449;-53
2021/04/19 03:13:24;;;;;;;25.47;23.17;;;8.30;99.90;;;;;;5005720;28;20463;-52
2021/04/19 03:15:54;;;;;;;25.37;22.93;;;8.30;99.90;;;;;;5018033;28;20555;-48
2021/04/19 03:18:22;;;;;;;26.07;23.30;;;8.30;99.90;;;;;;5018562;28;20464;-54
2021/04/19 03:21:05;;;;;;;27.87;24.97;;;8.30;99.90;;;;;;5016794;28;20621;-54
2021/04/19 03:23:34;;;;;;;24.67;22.20;;;8.40;99.90;;;;;;4985601;28;20472;-52
2021/04/19 03:26:02;;;;;;;24.73;22.20;;;8.40;99.90;;;;;;5015127;28;20469;-49
2021/04/19 03:28:32;;;;;;;26.37;23.77;;;8.30;99.90;;;;;;5006391;28;20460;-53
2021/04/19 03:30:59;;;;;;;27.17;24.60;;;8.30;99.90;;;;;;5019566;28;20495;-54
2021/04/19 03:33:26;;;;;;;27.60;24.90;;;8.30;99.90;;;;;;5009897;28;20472;-54
2021/04/19 03:35:53;;;;;;;27.10;24.47;;;8.40;99.90;;;;;;5012150;28;20880;-52
2021/04/19 03:38:21;;;;;;;29.00;26.10;;;8.30;99.90;;;;;;5006243;28;20439;-54
2021/04/19 03:40:51;;;;;;;28.90;26.10;;;8.40;99.90;;;;;;4999752;28;20527;-52
2021/04/19 03:43:19;;;;;;;29.07;25.97;;;8.30;99.90;;;;;;5015941;28;20468;-51
2021/04/19 03:45:50;;;;;;;26.00;23.50;;;8.30;99.90;;;;;;5014565;28;20436;-52
2021/04/19 03:48:20;;;;;;;28.37;25.57;;;8.20;99.90;;;;;;5000414;28;20465;-54
2021/04/19 03:50:50;;;;;;;29.47;26.60;;;8.20;99.90;;;;;;5013096;28;20439;-54
2021/04/19 03:53:18;;;;;;;27.70;25.00;;;8.30;99.90;;;;;;5004842;28;20439;-50
2021/04/19 03:55:49;;;;;;;26.80;24.00;;;8.30;99.90;;;;;;5014689;28;20464;-54
2021/04/19 03:58:17;;;;;;;27.23;24.37;;;8.30;99.90;;;;;;5017891;28;20884;-53
2021/04/19 04:00:48;;;;;;;27.47;24.90;;;8.30;99.90;;;;;;5000476;28;20786;-54
2021/04/19 04:03:17;;;;;;;26.53;23.93;;;8.30;99.90;;;;;;4983304;28;20477;-57
2021/04/19 04:05:45;;;;;;;27.20;24.50;;;8.30;99.90;;;;;;5001281;28;20550;-55
2021/04/19 04:08:12;;;;;;;28.40;25.70;;;8.30;99.90;;;;;;5008577;28;20461;-59
2021/04/19 04:10:40;;;;;;;29.00;26.00;;;8.30;99.90;;;;;;5004064;28;20468;-59
2021/04/19 04:13:06;;;;;;;28.57;25.77;;;8.30;99.90;;;;;;5010830;28;20458;-59
2021/04/19 04:15:33;;;;;;;29.50;26.33;;;8.30;99.90;;;;;;4999442;28;20472;-59
2021/04/19 04:18:00;;;;;;;27.97;24.07;;;8.30;99.90;;;;;;5015717;28;20498;-59
2021/04/19 04:20:27;;;;;;;27.83;24.83;;;8.30;99.90;;;;;;5002620;28;20496;-59
2021/04/19 04:22:54;;;;;;;27.27;24.47;;;8.20;99.90;;;;;;5015780;28;20495;-58
2021/04/19 04:25:21;;;;;;;27.67;24.87;;;8.20;99.90;;;;;;5002225;28;20511;-57
2021/04/19 04:27:50;;;;;;;27.47;24.77;;;8.20;99.90;;;;;;5019098;28;20446;-52
2021/04/19 04:30:17;;;;;;;26.57;24.07;;;8.20;99.90;;;;;;4998085;28;20499;-55
2021/04/19 04:32:44;;;;;;;26.90;24.00;;;8.20;99.90;;;;;;4998095;28;20808;-59
2021/04/19 04:35:12;;;;;;;25.97;23.27;;;8.20;99.90;;;;;;4998053;28;20523;-58
2021/04/19 04:37:39;;;;;;;23.90;21.57;;;8.20;99.90;;;;;;5000321;28;20480;-59
2021/04/19 04:40:09;;;;;;;27.60;24.80;;;8.20;99.90;;;;;;4990223;28;20474;-59
2021/04/19 04:42:36;;;;;;;27.37;24.60;;;8.20;99.90;;;;;;4999107;28;20480;-57
2021/04/19 04:45:03;;;;;;;25.00;22.70;;;8.20;99.90;;;;;;4999313;28;20469;-58
2021/04/19 04:47:36;;;;;;;25.87;22.90;;;8.20;99.90;;;;;;4998320;28;20465;-58
2021/04/19 04:50:09;;;;;;;25.97;23.50;;;8.20;99.90;;;;;;4998017;28;20464;-59
2021/04/19 04:52:43;;;;;;;25.73;23.20;;;8.30;99.90;;;;;;4997955;28;20770;-56
2021/04/19 04:55:14;;;;;;;71.67;61.20;;;8.30;99.90;;;;;;5000978;28;20468;-59
2021/04/19 04:57:44;;;;;;;35.60;31.80;;;8.40;99.90;;;;;;5002834;28;20469;-60
2021/04/19 05:00:15;;;;;;;34.17;25.23;;;8.40;99.90;;;;;;5002262;28;21003;-61
2021/04/19 05:02:43;;;;;;;26.00;23.30;;;8.40;99.90;;;;;;4999236;28;20479;-61
2021/04/19 05:05:14;;;;;;;31.10;28.03;;;8.50;99.90;;;;;;5005644;28;20900;-61
2021/04/19 05:07:46;;;;;;;25.33;22.63;;;8.50;99.90;;;;;;5006005;28;20463;-61
2021/04/19 05:10:16;;;;;;;22.70;20.40;;;8.50;99.90;;;;;;5007145;28;20465;-61
2021/04/19 05:12:45;;;;;;;22.97;20.60;;;8.60;99.90;;;;;;5006090;28;20464;-61
2021/04/19 05:15:13;;;;;;;23.30;20.23;;;8.60;99.90;;;;;;5003973;28;20523;-61
2021/04/19 05:17:43;;;;;;;23.23;21.00;;;8.60;99.90;;;;;;5001841;28;20464;-61
2021/04/19 05:20:11;;;;;;;28.30;20.93;;;8.60;99.90;;;;;;5000760;28;20555;-61
2021/04/19 05:22:38;;;;;;;21.80;19.70;;;8.50;99.90;;;;;;5001172;28;20464;-61
2021/04/19 05:25:10;;;;;;;21.73;19.60;;;8.60;99.90;;;;;;5001730;28;20527;-61
2021/04/19 05:27:37;;;;;;;21.60;19.43;;;8.60;99.90;;;;;;5001032;28;20968;-61
2021/04/19 05:30:06;;;;;;;20.77;18.77;;;8.60;99.90;;;;;;5008464;28;20511;-61
2021/04/19 05:32:35;;;;;;;21.03;18.57;;;8.60;99.90;;;;;;5007095;28;20465;-61
2021/04/19 05:35:02;;;;;;;19.43;17.60;;;8.60;99.90;;;;;;5012733;28;20464;-61
2021/04/19 05:37:33;;;;;;;15.87;14.43;;;8.60;99.90;;;;;;5009755;28;20465;-62
2021/04/19 05:39:59;;;;;;;17.70;15.90;;;8.60;99.90;;;;;;5016001;28;20492;-61
2021/04/19 05:42:27;;;;;;;18.00;15.10;;;8.60;99.90;;;;;;5021053;28;20472;-61
2021/04/19 05:44:53;;;;;;;17.17;15.47;;;8.70;99.90;;;;;;5003834;28;20475;-61
2021/04/19 05:47:20;;;;;;;16.63;13.90;;;8.70;99.90;;;;;;5021350;28;20891;-60
2021/04/19 05:49:48;;;;;;;16.60;15.07;;;8.80;99.90;;;;;;5002627;28;20457;-60
2021/04/19 05:52:15;;;;;;;17.70;16.00;;;8.80;99.90;;;;;;5021797;28;20479;-60
2021/04/19 05:54:42;;;;;;;18.37;16.60;;;8.80;99.90;;;;;;5018442;28;20457;-60
2021/04/19 05:57:12;;;;;;;17.90;16.10;;;8.90;99.90;;;;;;5002267;28;20457;-60
2021/04/19 05:59:48;;;;;;;17.70;16.00;;;8.90;99.90;;;;;;5001636;28;20461;-61
2021/04/19 06:02:23;;;;;;;18.37;16.53;;;9.00;99.90;;;;;;5010615;28;20573;-61
2021/04/19 06:04:54;;;;;;;18.73;16.57;;;9.00;99.90;;;;;;4996601;28;20480;-61
2021/04/19 06:07:27;;;;;;;16.10;14.60;;;9.10;99.90;;;;;;5001444;28;20457;-61
2021/04/19 06:10:02;;;;;;;17.90;16.00;;;9.20;99.90;;;;;;5017692;28;20888;-60
2021/04/19 06:12:33;;;;;;;18.77;16.83;;;9.20;99.90;;;;;;5018317;28;20452;-60
2021/04/19 06:15:08;;;;;;;16.13;14.63;;;9.30;99.90;;;;;;5020901;28;20460;-61
2021/04/19 06:17:39;;;;;;;16.30;14.80;;;9.30;99.90;;;;;;5021463;28;20938;-61
2021/04/19 06:20:12;;;;;;;17.20;15.57;;;9.40;99.90;;;;;;5021139;28;20491;-61
2021/04/19 06:22:39;;;;;;;11.67;10.53;;;9.50;99.90;;;;;;5012668;28;20464;-61
2021/04/19 06:25:09;;;;;;;13.00;11.80;;;9.50;99.90;;;;;;5010565;28;20458;-61
2021/04/19 06:27:35;;;;;;;13.53;12.17;;;9.40;99.90;;;;;;5012601;28;20473;-61
2021/04/19 06:30:17;;;;;;;11.07;9.97;;;9.40;99.90;;;;;;5019423;28;20494;-61
2021/04/19 06:32:49;;;;;;;11.13;9.97;;;9.40;99.90;;;;;;5020202;28;20526;-61
2021/04/19 06:35:20;;;;;;;10.13;9.23;;;9.40;99.90;;;;;;5000591;28;20474;-61
2021/04/19 06:37:49;;;;;;;9.97;9.03;;;9.30;99.90;;;;;;5007894;28;20453;-62
2021/04/19 06:40:17;;;;;;;9.80;8.97;;;9.30;99.90;;;;;;5011452;28;20492;-61
2021/04/19 06:42:44;;;;;;;8.47;7.77;;;9.30;99.90;;;;;;5010246;28;20556;-62
2021/04/19 06:45:14;;;;;;;10.20;9.30;;;9.30;99.90;;;;;;4999087;28;20469;-61
2021/04/19 06:47:42;;;;;;;9.70;8.77;;;9.30;99.90;;;;;;5005641;28;20503;-61
2021/04/19 06:50:10;;;;;;;9.00;8.30;;;9.30;99.90;;;;;;5004885;28;20461;-62
2021/04/19 06:52:39;;;;;;;9.63;8.83;;;9.30;99.90;;;;;;5001726;28;20465;-61
2021/04/19 06:55:07;;;;;;;9.90;9.00;;;9.40;99.90;;;;;;5014449;28;20463;-61
2021/04/19 06:57:40;;;;;;;8.70;7.90;;;9.50;99.90;;;;;;5003791;28;20465;-61
2021/04/19 07:00:08;;;;;;;8.70;7.80;;;9.60;99.90;;;;;;5018762;28;20499;-61
2021/04/19 07:02:44;;;;;;;10.73;9.73;;;9.70;99.90;;;;;;4983227;28;20890;-62
2021/04/19 07:05:13;;;;;;;8.40;7.70;;;9.90;99.90;;;;;;5002400;28;20472;-61
2021/04/19 07:07:47;;;;;;;7.33;6.73;;;10.20;99.90;;;;;;5004163;28;20464;-61
2021/04/19 07:10:17;;;;;;;8.97;7.27;;;10.50;99.90;;;;;;5007494;28;20459;-61
2021/04/19 07:12:47;;;;;;;6.90;6.17;;;10.80;99.90;;;;;;5015226;28;20457;-61
2021/04/19 07:15:18;;;;;;;6.73;6.23;;;10.60;99.90;;;;;;5001851;28;20786;-61
2021/04/19 07:17:49;;;;;;;6.33;5.63;;;10.70;99.90;;;;;;5000624;28;20457;-61
2021/04/19 07:20:17;;;;;;;8.33;6.13;;;10.70;99.90;;;;;;4997692;28;20500;-61
2021/04/19 07:22:44;;;;;;;5.60;5.10;;;10.70;8.00;;;;;;4997844;28;20472;-61
2021/04/19 07:25:11;;;;;;;5.50;5.00;;;10.30;1.00;;;;;;4997702;28;20468;-61
2021/04/19 07:27:40;;;;;;;6.60;6.00;;;10.20;99.90;;;;;;4998538;28;20465;-61
2021/04/19 07:30:11;;;;;;;6.60;6.00;;;10.20;1.00;;;;;;4996417;28;20845;-61
2021/04/19 07:32:41;;;;;;;6.60;6.00;;;10.20;1.00;;;;;;4998581;28;20465;-60
2021/04/19 07:35:11;;;;;;;6.27;5.70;;;10.30;1.00;;;;;;4998767;28;20487;-60
2021/04/19 07:37:38;;;;;;;5.17;4.67;;;10.40;99.90;;;;;;4993453;28;20462;-60
2021/04/19 07:40:05;;;;;;;5.80;5.30;;;10.20;99.90;;;;;;4978835;28;20496;-60
2021/04/19 07:42:37;;;;;;;5.60;5.10;;;10.20;19.10;;;;;;4978497;28;20474;-60
2021/04/19 07:45:05;;;;;;;6.50;4.93;;;10.20;1.00;;;;;;4979920;28;20596;-59
2021/04/19 07:47:35;;;;;;;5.90;5.40;;;10.20;99.90;;;;;;4988719;28;20453;-59
2021/04/19 07:50:13;;;;;;;6.00;5.50;;;10.30;99.90;;;;;;4986752;28;20462;-59
2021/04/19 07:52:59;;;;;;;5.03;4.63;;;10.50;99.90;;;;;;4995371;28;20457;-58
2021/04/19 07:55:28;;;;;;;5.13;4.63;;;10.60;99.90;;;;;;4984013;28;20465;-57
2021/04/19 07:57:56;;;;;;;4.57;4.27;;;10.70;87.30;;;;;;4984003;28;20456;-58
2021/04/19 08:00:25;;;;;;;4.77;4.47;;;10.80;1.00;;;;;;4984399;28;20489;-58
2021/04/19 08:03:14;;;;;;;4.03;3.73;;;10.80;99.90;;;;;;4983933;28;20483;-56
2021/04/19 08:05:44;;;;;;;7.10;5.30;;;10.90;1.00;;;;;;4979939;28;20895;-57
2021/04/19 08:08:15;;;;;;;5.00;4.60;;;11.00;1.00;;;;;;4986570;28;20472;-53
2021/04/19 08:10:45;;;;;;;4.33;4.00;;;11.00;99.90;;;;;;4986959;28;20453;-56
2021/04/19 08:13:13;;;;;;;4.80;4.40;;;11.20;99.90;;;;;;4986330;28;20465;-56
2021/04/19 08:15:42;;;;;;;3.90;3.60;;;11.40;99.90;;;;;;4988471;28;20516;-53
2021/04/19 08:18:11;;;;;;;4.30;4.00;;;11.60;99.90;;;;;;4987314;28;20466;-52
2021/04/19 08:20:47;;;;;;;4.87;4.47;;;11.70;99.90;;;;;;4986658;28;20481;-52
2021/04/19 08:23:16;;;;;;;4.57;4.17;;;11.80;99.90;;;;;;4985912;28;20528;-55
2021/04/19 08:25:45;;;;;;;4.40;4.10;;;11.90;80.70;;;;;;4977120;28;20470;-53
2021/04/19 08:28:14;;;;;;;3.70;3.40;;;12.10;52.50;;;;;;4981104;28;20456;-49
2021/04/19 08:30:42;;;;;;;3.57;3.33;;;12.20;50.20;;;;;;5001202;28;20526;-53
2021/04/19 08:33:13;;;;;;;4.40;3.93;;;12.30;1.00;;;;;;5007029;28;20481;-51
2021/04/19 08:35:41;;;;;;;3.87;3.60;;;12.40;1.00;;;;;;5009627;28;20465;-52
2021/04/19 08:38:07;;;;;;;3.60;3.30;;;12.50;1.00;;;;;;5010214;28;20908;-49
2021/04/19 08:40:37;;;;;;;4.10;3.80;;;12.50;1.00;;;;;;5011689;28;20494;-52
2021/04/19 08:43:08;;;;;;;3.30;3.10;;;12.30;1.00;;;;;;5011326;28;20466;-52
2021/04/19 08:45:41;;;;;;;3.47;3.27;;;12.30;1.00;;;;;;5009553;28;20770;-51
2021/04/19 08:48:12;;;;;;;3.50;3.27;;;12.30;1.00;;;;;;5005354;28;20546;-51
2021/04/19 08:50:40;;;;;;;3.20;3.00;;;12.50;1.00;;;;;;5007713;28;20483;-46
2021/04/19 08:53:11;;;;;;;3.50;3.20;;;12.70;1.00;;;;;;5009094;28;20452;-52
2021/04/19 08:55:41;;;;;;;3.27;3.07;;;13.10;1.00;;;;;;5001030;28;20471;-47
2021/04/19 08:58:09;;;;;;;3.57;3.27;;;13.50;1.00;;;;;;5001143;28;20497;-47
2021/04/19 09:00:37;;;;;;;2.80;2.60;;;13.60;1.00;;;;;;4987857;28;20510;-47
2021/04/19 09:03:05;;;;;;;3.23;3.03;;;13.60;1.00;;;;;;5002759;28;20484;-51
2021/04/19 09:05:32;;;;;;;2.73;2.53;;;13.60;1.00;;;;;;5007721;28;20472;-52
2021/04/19 09:08:05;;;;;;;3.20;3.00;;;13.50;1.00;;;;;;5006483;28;20457;-47
2021/04/19 09:10:52;;;;;;;2.80;2.60;;;13.40;1.00;;;;;;5012915;28;20454;-47
2021/04/19 09:13:30;;;;;;;3.07;2.77;;;13.40;1.00;;;;;;5006983;28;20479;-45
2021/04/19 09:16:13;;;;;;;3.27;3.07;;;13.50;1.00;;;;;;5006739;28;20555;-46
2021/04/19 09:18:41;;;;;;;4.13;3.83;;;13.60;1.00;;;;;;5008640;28;20466;-48
2021/04/19 09:21:37;;;;;;;3.40;3.00;;;13.60;1.00;;;;;;5009861;28;20495;-46
2021/04/19 09:24:06;;;;;;;3.30;3.10;;;13.40;1.00;;;;;;5008461;28;20939;-47
2021/04/19 09:26:56;;;;;;;4.70;2.87;;;13.20;1.00;;;;;;5005518;28;20769;-46
2021/04/19 09:29:45;;;;;;;3.10;2.80;;;13.20;1.00;;;;;;5006284;28;20461;-50
2021/04/19 09:32:26;;;;;;;9.93;8.93;;;13.20;1.00;;;;;;5007386;28;20948;-45
2021/04/19 09:34:54;;;;;;;4.83;3.33;;;13.50;1.00;;;;;;5007529;28;20548;-52
2021/04/19 09:37:53;;;;;;;3.00;2.70;;;13.60;1.00;;;;;;5008648;28;20455;-45
2021/04/19 09:40:24;;;;;;;3.10;2.90;;;13.30;1.00;;;;;;5007862;28;20870;-53
2021/04/19 09:43:05;;;;;;;4.60;4.20;;;13.20;1.00;;;;;;5008002;28;20442;-49
2021/04/19 09:45:55;;;;;;;3.37;3.07;;;13.30;1.00;;;;;;5007488;28;20456;-50
2021/04/19 09:48:48;;;;;;;4.10;3.80;;;13.20;1.00;;;;;;5007648;28;20456;-46
2021/04/19 09:51:18;;;;;;;3.70;2.90;;;13.10;1.00;;;;;;5001090;28;20549;-50
2021/04/19 09:53:55;;;;;;;3.40;3.20;;;13.10;1.00;;;;;;5007063;28;20459;-44
2021/04/19 09:56:24;;;;;;;3.30;3.00;;;13.00;1.00;;;;;;5007145;28;20476;-45
2021/04/19 09:58:52;;;;;;;3.73;3.43;;;12.70;1.00;;;;;;5008653;28;20884;-47
2021/04/19 10:01:20;;;;;;;4.03;3.63;;;12.60;1.00;;;;;;5008718;28;20951;-45
2021/04/19 10:03:51;;;;;;;3.90;3.60;;;12.70;1.00;;;;;;5000795;28;20472;-44
2021/04/19 10:06:24;;;;;;;3.83;3.53;;;12.60;1.00;;;;;;5008504;28;20463;-48
2021/04/19 10:08:56;;;;;;;7.90;7.30;;;12.50;1.00;;;;;;5009031;28;20768;-48
2021/04/19 10:11:27;;;;;;;4.10;3.80;;;12.60;1.00;;;;;;5005602;28;20435;-49
2021/04/19 10:13:56;;;;;;;4.53;3.80;;;12.60;1.00;;;;;;5009643;28;20459;-44
2021/04/19 10:16:24;;;;;;;4.30;3.93;;;12.80;1.00;;;;;;5016805;28;20460;-50
2021/04/19 10:18:53;;;;;;;4.30;4.00;;;14.10;1.00;;;;;;5019568;28;20464;-52
2021/04/19 10:21:26;;;;;;;3.63;3.33;;;15.30;1.00;;;;;;5014275;28;20500;-45
2021/04/19 10:23:52;;;;;;;9.77;4.80;;;16.70;1.00;;;;;;4999839;28;20568;-46
2021/04/19 10:26:33;;;;;;;6.50;6.00;;;17.50;1.00;;;;;;4999519;28;20898;-47
2021/04/19 10:29:13;;;;;;;4.90;4.50;;;18.20;1.00;;;;;;5004176;28;20558;-48
2021/04/19 10:31:47;;;;;;;5.90;5.40;;;18.60;1.00;;;;;;5007036;28;20480;-49
2021/04/19 10:34:14;;;;;;;6.23;5.73;;;18.80;1.00;;;;;;5000014;28;20464;-53
2021/04/19 10:36:46;;;;;;;5.63;5.23;;;18.60;1.00;;;;;;4998653;28;20461;-46
2021/04/19 10:39:16;;;;;;;6.30;5.90;;;18.40;99.90;;;;;;4998493;28;20739;-49
2021/04/19 10:41:43;;;;;;;6.00;5.60;;;19.20;1.00;;;;;;4997429;28;20812;-47
2021/04/19 10:44:10;;;;;;;5.20;4.80;;;19.20;99.90;;;;;;4997017;28;20495;-54
2021/04/19 10:46:42;;;;;;;4.73;4.43;;;18.70;99.90;;;;;;4993554;28;20916;-51
2021/04/19 10:49:22;;;;;;;5.20;4.90;;;19.10;99.90;;;;;;4998389;28;20528;-47
2021/04/19 10:51:53;;;;;;;5.60;5.20;;;19.30;99.90;;;;;;4998616;28;20734;-52
2021/04/19 10:54:20;;;;;;;5.60;5.20;;;18.60;99.90;;;;;;4999563;28;20881;-48
2021/04/19 10:56:49;;;;;;;5.37;4.97;;;17.50;99.90;;;;;;4999834;28;20472;-45
2021/04/19 10:59:18;;;;;;;5.80;5.40;;;16.70;99.90;;;;;;4998813;28;20464;-47
2021/04/19 11:01:45;;;;;;;5.50;5.10;;;16.40;99.90;;;;;;4998788;28;20496;-49
2021/04/19 11:04:12;;;;;;;5.53;5.13;;;15.60;99.90;;;;;;4985054;28;20520;-55
2021/04/19 11:06:39;;;;;;;5.53;5.13;;;15.40;1.00;;;;;;4979558;28;20457;-49
2021/04/19 11:09:06;;;;;;;6.53;6.03;;;15.20;1.00;;;;;;4979896;28;20552;-44
2021/04/19 11:11:41;;;;;;;5.90;5.40;;;15.00;1.00;;;;;;4997011;28;20499;-53
2021/04/19 11:14:10;;;;;;;5.90;5.47;;;14.90;1.00;;;;;;4984438;28;20462;-55
2021/04/19 11:16:48;;;;;;;6.60;6.10;;;14.90;1.00;;;;;;4997714;28;20461;-47
2021/04/19 11:19:32;;;;;;;5.93;5.53;;;14.80;1.00;;;;;;4998087;28;20751;-47
2021/04/19 11:21:59;;;;;;;6.20;5.80;;;14.90;1.00;;;;;;4988137;28;20521;-49
2021/04/19 11:24:36;;;;;;;5.63;5.20;;;15.20;1.00;;;;;;4988141;28;20477;-47
2021/04/19 11:27:08;;;;;;;6.10;5.70;;;15.20;1.00;;;;;;4999025;28;20547;-53
2021/04/19 11:29:38;;;;;;;6.60;6.00;;;15.40;1.00;;;;;;4997314;28;20509;-51
2021/04/19 11:32:07;;;;;;;6.70;6.07;;;15.00;1.00;;;;;;4996724;28;20898;-54
2021/04/19 11:34:41;;;;;;;6.47;5.97;;;15.10;1.00;;;;;;4997012;28;20571;-51
2021/04/19 11:37:08;;;;;;;6.30;5.80;;;15.00;1.00;;;;;;4979277;28;20461;-46
2021/04/19 11:39:39;;;;;;;7.20;6.60;;;15.20;1.00;;;;;;4977936;28;20462;-52
2021/04/19 11:42:33;;;;;;;6.40;5.90;;;15.40;1.00;;;;;;4979197;28;20494;-46
2021/04/19 11:45:01;;;;;;;6.67;6.07;;;15.40;1.00;;;;;;4978912;28;20505;-45
2021/04/19 11:47:33;;;;;;;6.90;6.30;;;15.10;1.00;;;;;;4978325;28;20466;-51
2021/04/19 11:50:08;;;;;;;6.10;5.60;;;15.20;1.00;;;;;;4978987;28;20480;-47
2021/04/19 11:52:45;;;;;;;6.80;6.30;;;14.90;1.00;;;;;;4977899;28;20465;-55
2021/04/19 11:55:13;;;;;;;6.87;6.27;;;14.50;1.00;;;;;;4978506;28;20465;-54
2021/04/19 11:57:40;;;;;;;6.80;6.23;;;14.10;1.00;;;;;;4978460;28;20508;-45
2021/04/19 12:00:11;;;;;;;6.37;5.87;;;13.80;1.00;;;;;;4979445;28;20560;-45
2021/04/19 12:02:38;;;;;;;6.87;6.20;;;13.40;1.00;;;;;;4977888;28;20476;-44
2021/04/19 12:05:07;;;;;;;6.73;6.13;;;13.50;1.00;;;;;;5004925;28;20491;-44
2021/04/19 12:07:37;;;;;;;7.03;6.43;;;13.60;1.00;;;;;;5016585;28;20459;-45
2021/04/19 12:10:04;;;;;;;7.37;6.80;;;13.70;1.00;;;;;;5011896;28;20519;-47
2021/04/19 12:12:48;;;;;;;8.50;7.70;;;13.70;1.00;;;;;;5004080;28;20482;-44
2021/04/19 12:15:19;;;;;;;8.20;7.50;;;13.80;1.00;;;;;;5008083;28;20438;-48
2021/04/19 12:17:46;;;;;;;7.50;6.63;;;13.60;1.00;;;;;;4997538;28;20465;-49
2021/04/19 12:20:13;;;;;;;8.30;7.50;;;13.70;1.00;;;;;;4997182;28;20757;-44
2021/04/19 12:22:45;;;;;;;7.87;7.17;;;13.70;1.00;;;;;;5014022;28;20758;-51
2021/04/19 12:25:12;;;;;;;8.40;7.60;;;13.80;1.00;;;;;;5002988;28;20469;-49
2021/04/19 12:27:41;;;;;;;7.50;6.90;;;14.20;1.00;;;;;;4997969;28;20488;-45
2021/04/19 12:30:11;;;;;;;8.03;7.23;;;14.50;1.00;;;;;;4996479;28;20493;-52
2021/04/19 12:32:37;;;;;;;6.90;6.20;;;14.30;1.00;;;;;;4997961;28;20461;-46
2021/04/19 12:35:11;;;;;;;7.60;6.90;;;14.30;1.00;;;;;;4996646;28;20472;-49
2021/04/19 12:37:38;;;;;;;8.03;7.33;;;14.30;1.00;;;;;;4996541;28;20468;-49
2021/04/19 12:40:05;;;;;;;8.00;7.30;;;14.60;1.00;;;;;;4997765;28;20511;-49
2021/04/19 12:42:32;;;;;;;9.03;8.20;;;15.00;1.00;;;;;;4997083;28;20499;-45
2021/04/19 12:45:00;;;;;;;7.70;7.00;;;15.40;1.00;;;;;;4997510;28;20469;-49
2021/04/19 12:47:31;;;;;;;8.67;8.00;;;15.00;1.00;;;;;;4997290;28;20760;-49
2021/04/19 12:49:57;;;;;;;7.53;6.93;;;14.60;1.00;;;;;;4997200;28;20897;-45
2021/04/19 12:52:26;;;;;;;8.80;8.00;;;14.70;1.00;;;;;;4998308;28;20461;-48
2021/04/19 12:54:53;;;;;;;9.03;8.23;;;15.00;1.00;;;;;;4997988;28;20465;-51
2021/04/19 12:57:21;;;;;;;9.00;8.20;;;15.20;1.00;;;;;;4996970;28;20735;-46
2021/04/19 12:59:48;;;;;;;8.63;7.83;;;15.30;1.00;;;;;;4997780;28;20461;-46
2021/04/19 13:02:17;;;;;;;8.00;7.23;;;16.40;1.00;;;;;;4996181;28;20499;-52